sensor_id;sensor_type;location;lat;lon;timestamp;P1;durP1;ratioP1;P2;durP2;ratioP2
70312;SDS011;57723;51.698;5.344;2023-07-29T00:00:42;4.75;;;1.80;;
70312;SDS011;57723;51.698;5.344;2023-07-29T00:03:10;3.35;;;1.75;;
70312;SDS011;57723;51.698;5.344;2023-07-29T00:05:39;3.20;;;1.70;;
70312;SDS011;57723;51.698;5.344;2023-07-29T00:08:04;3.27;;;1.53;;
70312;SDS011;57723;51.698;5.344;2023-07-29T00:10:34;2.92;;;1.70;;
70312;SDS011;57723;51.698;5.344;2023-07-29T00:13:00;2.92;;;1.63;;
70312;SDS011;57723;51.698;5.344;2023-07-29T00:15:26;3.60;;;1.73;;
70312;SDS011;57723;51.698;5.344;2023-07-29T00:17:51;2.70;;;1.53;;
70312;SDS011;57723;51.698;5.344;2023-07-29T00:20:20;3.50;;;1.75;;
70312;SDS011;57723;51.698;5.344;2023-07-29T00:22:46;3.65;;;1.70;;
70312;SDS011;57723;51.698;5.344;2023-07-29T00:25:15;6.70;;;1.67;;
70312;SDS011;57723;51.698;5.344;2023-07-29T00:27:44;2.80;;;1.73;;
70312;SDS011;57723;51.698;5.344;2023-07-29T00:30:11;3.28;;;1.70;;
70312;SDS011;57723;51.698;5.344;2023-07-29T00:32:36;4.50;;;1.60;;
70312;SDS011;57723;51.698;5.344;2023-07-29T00:35:04;4.43;;;1.75;;
70312;SDS011;57723;51.698;5.344;2023-07-29T00:37:30;2.33;;;1.63;;
70312;SDS011;57723;51.698;5.344;2023-07-29T00:39:57;3.10;;;1.63;;
70312;SDS011;57723;51.698;5.344;2023-07-29T00:42:23;3.00;;;1.50;;
70312;SDS011;57723;51.698;5.344;2023-07-29T00:44:48;3.33;;;1.90;;
70312;SDS011;57723;51.698;5.344;2023-07-29T00:47:13;3.33;;;1.80;;
70312;SDS011;57723;51.698;5.344;2023-07-29T00:49:40;2.40;;;1.50;;
70312;SDS011;57723;51.698;5.344;2023-07-29T00:52:05;3.47;;;1.50;;
70312;SDS011;57723;51.698;5.344;2023-07-29T00:54:31;4.03;;;1.73;;
70312;SDS011;57723;51.698;5.344;2023-07-29T00:56:56;4.10;;;1.60;;
70312;SDS011;57723;51.698;5.344;2023-07-29T00:59:22;3.30;;;1.80;;
70312;SDS011;57723;51.698;5.344;2023-07-29T01:01:48;4.23;;;1.60;;
70312;SDS011;57723;51.698;5.344;2023-07-29T01:04:13;3.55;;;1.80;;
70312;SDS011;57723;51.698;5.344;2023-07-29T01:09:20;4.23;;;1.70;;
70312;SDS011;57723;51.698;5.344;2023-07-29T01:14:34;2.88;;;1.50;;
70312;SDS011;57723;51.698;5.344;2023-07-29T01:17:03;2.63;;;1.58;;
70312;SDS011;57723;51.698;5.344;2023-07-29T01:21:57;3.13;;;1.60;;
70312;SDS011;57723;51.698;5.344;2023-07-29T01:24:23;2.83;;;1.40;;
70312;SDS011;57723;51.698;5.344;2023-07-29T01:26:48;2.30;;;1.60;;
70312;SDS011;57723;51.698;5.344;2023-07-29T01:29:13;3.87;;;1.70;;
70312;SDS011;57723;51.698;5.344;2023-07-29T01:31:43;3.30;;;1.83;;
70312;SDS011;57723;51.698;5.344;2023-07-29T01:34:26;4.10;;;1.60;;
70312;SDS011;57723;51.698;5.344;2023-07-29T01:36:51;3.53;;;1.45;;
70312;SDS011;57723;51.698;5.344;2023-07-29T01:39:18;2.83;;;1.60;;
70312;SDS011;57723;51.698;5.344;2023-07-29T01:41:47;3.33;;;1.60;;
70312;SDS011;57723;51.698;5.344;2023-07-29T01:44:13;3.07;;;1.40;;
70312;SDS011;57723;51.698;5.344;2023-07-29T01:46:44;3.80;;;1.50;;
70312;SDS011;57723;51.698;5.344;2023-07-29T01:49:09;3.60;;;1.50;;
70312;SDS011;57723;51.698;5.344;2023-07-29T01:51:35;3.40;;;1.67;;
70312;SDS011;57723;51.698;5.344;2023-07-29T01:54:00;2.43;;;1.30;;
70312;SDS011;57723;51.698;5.344;2023-07-29T01:56:26;2.70;;;1.50;;
70312;SDS011;57723;51.698;5.344;2023-07-29T01:58:51;2.57;;;1.30;;
70312;SDS011;57723;51.698;5.344;2023-07-29T02:01:17;3.87;;;1.30;;
70312;SDS011;57723;51.698;5.344;2023-07-29T02:03:43;3.23;;;1.40;;
70312;SDS011;57723;51.698;5.344;2023-07-29T02:06:08;2.38;;;1.40;;
70312;SDS011;57723;51.698;5.344;2023-07-29T02:08:35;3.80;;;1.40;;
70312;SDS011;57723;51.698;5.344;2023-07-29T02:11:00;2.55;;;1.30;;
70312;SDS011;57723;51.698;5.344;2023-07-29T02:13:27;5.23;;;1.63;;
70312;SDS011;57723;51.698;5.344;2023-07-29T02:15:52;2.30;;;1.30;;
70312;SDS011;57723;51.698;5.344;2023-07-29T02:18:21;2.43;;;1.30;;
70312;SDS011;57723;51.698;5.344;2023-07-29T02:20:46;2.97;;;1.42;;
70312;SDS011;57723;51.698;5.344;2023-07-29T02:23:14;2.00;;;1.20;;
70312;SDS011;57723;51.698;5.344;2023-07-29T02:25:41;3.55;;;1.42;;
70312;SDS011;57723;51.698;5.344;2023-07-29T02:28:06;2.07;;;1.10;;
70312;SDS011;57723;51.698;5.344;2023-07-29T02:30:31;2.80;;;1.10;;
70312;SDS011;57723;51.698;5.344;2023-07-29T02:32:57;2.27;;;1.27;;
70312;SDS011;57723;51.698;5.344;2023-07-29T02:35:22;2.90;;;1.20;;
70312;SDS011;57723;51.698;5.344;2023-07-29T02:37:47;2.17;;;1.10;;
70312;SDS011;57723;51.698;5.344;2023-07-29T02:40:15;2.27;;;1.30;;
70312;SDS011;57723;51.698;5.344;2023-07-29T02:42:40;4.45;;;1.30;;
70312;SDS011;57723;51.698;5.344;2023-07-29T02:45:06;2.07;;;1.20;;
70312;SDS011;57723;51.698;5.344;2023-07-29T02:47:35;1.60;;;1.00;;
70312;SDS011;57723;51.698;5.344;2023-07-29T02:50:00;3.93;;;1.10;;
70312;SDS011;57723;51.698;5.344;2023-07-29T02:52:28;3.00;;;1.13;;
70312;SDS011;57723;51.698;5.344;2023-07-29T02:54:55;2.07;;;1.00;;
70312;SDS011;57723;51.698;5.344;2023-07-29T02:57:20;2.25;;;1.10;;
70312;SDS011;57723;51.698;5.344;2023-07-29T02:59:46;2.13;;;1.17;;
70312;SDS011;57723;51.698;5.344;2023-07-29T03:02:14;2.33;;;1.27;;
70312;SDS011;57723;51.698;5.344;2023-07-29T03:04:41;3.40;;;1.03;;
70312;SDS011;57723;51.698;5.344;2023-07-29T03:07:06;3.40;;;1.13;;
70312;SDS011;57723;51.698;5.344;2023-07-29T03:09:32;2.93;;;1.20;;
70312;SDS011;57723;51.698;5.344;2023-07-29T03:11:58;1.63;;;1.00;;
70312;SDS011;57723;51.698;5.344;2023-07-29T03:14:24;2.70;;;1.03;;
70312;SDS011;57723;51.698;5.344;2023-07-29T03:16:49;2.55;;;1.00;;
70312;SDS011;57723;51.698;5.344;2023-07-29T03:19:14;1.67;;;1.00;;
70312;SDS011;57723;51.698;5.344;2023-07-29T03:21:40;3.27;;;1.20;;
70312;SDS011;57723;51.698;5.344;2023-07-29T03:24:05;1.90;;;1.20;;
70312;SDS011;57723;51.698;5.344;2023-07-29T03:26:31;2.22;;;1.02;;
70312;SDS011;57723;51.698;5.344;2023-07-29T03:28:57;2.33;;;0.90;;
70312;SDS011;57723;51.698;5.344;2023-07-29T03:31:22;2.40;;;0.90;;
70312;SDS011;57723;51.698;5.344;2023-07-29T03:33:56;2.77;;;1.00;;
70312;SDS011;57723;51.698;5.344;2023-07-29T03:36:22;2.08;;;1.42;;
70312;SDS011;57723;51.698;5.344;2023-07-29T03:38:47;1.87;;;1.07;;
70312;SDS011;57723;51.698;5.344;2023-07-29T03:41:13;1.85;;;1.10;;
70312;SDS011;57723;51.698;5.344;2023-07-29T03:43:38;2.27;;;1.00;;
70312;SDS011;57723;51.698;5.344;2023-07-29T03:46:04;2.23;;;0.90;;
70312;SDS011;57723;51.698;5.344;2023-07-29T03:48:39;1.98;;;0.85;;
70312;SDS011;57723;51.698;5.344;2023-07-29T03:51:04;2.28;;;1.00;;
70312;SDS011;57723;51.698;5.344;2023-07-29T03:53:30;2.13;;;0.80;;
70312;SDS011;57723;51.698;5.344;2023-07-29T03:55:55;1.33;;;0.90;;
70312;SDS011;57723;51.698;5.344;2023-07-29T03:58:21;2.10;;;1.00;;
70312;SDS011;57723;51.698;5.344;2023-07-29T04:00:46;2.10;;;1.10;;
70312;SDS011;57723;51.698;5.344;2023-07-29T04:03:12;3.17;;;0.90;;
70312;SDS011;57723;51.698;5.344;2023-07-29T04:05:40;1.75;;;1.00;;
70312;SDS011;57723;51.698;5.344;2023-07-29T04:08:06;1.30;;;0.83;;
70312;SDS011;57723;51.698;5.344;2023-07-29T04:10:57;2.05;;;1.00;;
70312;SDS011;57723;51.698;5.344;2023-07-29T04:13:23;2.50;;;1.07;;
70312;SDS011;57723;51.698;5.344;2023-07-29T04:15:51;2.47;;;1.10;;
70312;SDS011;57723;51.698;5.344;2023-07-29T04:18:16;1.87;;;1.00;;
70312;SDS011;57723;51.698;5.344;2023-07-29T04:20:41;1.60;;;0.93;;
70312;SDS011;57723;51.698;5.344;2023-07-29T04:23:14;2.37;;;0.97;;
70312;SDS011;57723;51.698;5.344;2023-07-29T04:25:40;2.42;;;1.08;;
70312;SDS011;57723;51.698;5.344;2023-07-29T04:28:05;2.53;;;1.10;;
70312;SDS011;57723;51.698;5.344;2023-07-29T04:30:30;3.43;;;1.20;;
70312;SDS011;57723;51.698;5.344;2023-07-29T04:32:59;2.83;;;1.00;;
70312;SDS011;57723;51.698;5.344;2023-07-29T04:35:24;2.40;;;1.10;;
70312;SDS011;57723;51.698;5.344;2023-07-29T04:37:50;2.35;;;1.10;;
70312;SDS011;57723;51.698;5.344;2023-07-29T04:40:15;2.07;;;1.13;;
70312;SDS011;57723;51.698;5.344;2023-07-29T04:42:40;3.33;;;1.10;;
70312;SDS011;57723;51.698;5.344;2023-07-29T04:45:09;3.22;;;1.00;;
70312;SDS011;57723;51.698;5.344;2023-07-29T04:47:34;1.63;;;1.10;;
70312;SDS011;57723;51.698;5.344;2023-07-29T04:50:00;1.77;;;0.90;;
70312;SDS011;57723;51.698;5.344;2023-07-29T04:52:25;2.00;;;1.10;;
70312;SDS011;57723;51.698;5.344;2023-07-29T04:54:50;2.90;;;1.10;;
70312;SDS011;57723;51.698;5.344;2023-07-29T04:57:20;3.25;;;1.00;;
70312;SDS011;57723;51.698;5.344;2023-07-29T04:59:45;3.70;;;1.40;;
70312;SDS011;57723;51.698;5.344;2023-07-29T05:02:10;1.90;;;1.10;;
70312;SDS011;57723;51.698;5.344;2023-07-29T05:04:36;2.80;;;0.90;;
70312;SDS011;57723;51.698;5.344;2023-07-29T05:07:01;2.30;;;1.20;;
70312;SDS011;57723;51.698;5.344;2023-07-29T05:09:27;13.47;;;1.30;;
70312;SDS011;57723;51.698;5.344;2023-07-29T05:11:52;1.83;;;1.10;;
70312;SDS011;57723;51.698;5.344;2023-07-29T05:14:18;3.57;;;1.20;;
70312;SDS011;57723;51.698;5.344;2023-07-29T05:16:45;4.28;;;1.10;;
70312;SDS011;57723;51.698;5.344;2023-07-29T05:19:11;2.03;;;1.10;;
70312;SDS011;57723;51.698;5.344;2023-07-29T05:21:40;2.47;;;1.10;;
70312;SDS011;57723;51.698;5.344;2023-07-29T05:24:08;2.47;;;1.00;;
70312;SDS011;57723;51.698;5.344;2023-07-29T05:26:34;3.97;;;1.20;;
70312;SDS011;57723;51.698;5.344;2023-07-29T05:28:59;2.73;;;1.40;;
70312;SDS011;57723;51.698;5.344;2023-07-29T05:31:25;1.92;;;1.00;;
70312;SDS011;57723;51.698;5.344;2023-07-29T05:33:51;3.47;;;1.23;;
70312;SDS011;57723;51.698;5.344;2023-07-29T05:36:17;6.25;;;1.35;;
70312;SDS011;57723;51.698;5.344;2023-07-29T05:38:43;3.07;;;1.13;;
70312;SDS011;57723;51.698;5.344;2023-07-29T05:41:15;3.17;;;1.10;;
70312;SDS011;57723;51.698;5.344;2023-07-29T05:43:41;2.87;;;1.07;;
70312;SDS011;57723;51.698;5.344;2023-07-29T05:46:14;3.70;;;1.05;;
70312;SDS011;57723;51.698;5.344;2023-07-29T05:48:40;5.38;;;1.20;;
70312;SDS011;57723;51.698;5.344;2023-07-29T05:51:09;4.37;;;1.07;;
70312;SDS011;57723;51.698;5.344;2023-07-29T05:53:34;4.13;;;1.00;;
70312;SDS011;57723;51.698;5.344;2023-07-29T05:56:00;6.00;;;1.03;;
70312;SDS011;57723;51.698;5.344;2023-07-29T05:58:25;2.25;;;1.20;;
70312;SDS011;57723;51.698;5.344;2023-07-29T06:00:51;2.20;;;1.20;;
70312;SDS011;57723;51.698;5.344;2023-07-29T06:03:17;2.63;;;1.05;;
70312;SDS011;57723;51.698;5.344;2023-07-29T06:05:45;6.68;;;1.20;;
70312;SDS011;57723;51.698;5.344;2023-07-29T06:08:10;2.43;;;1.20;;
70312;SDS011;57723;51.698;5.344;2023-07-29T06:10:39;3.30;;;1.10;;
70312;SDS011;57723;51.698;5.344;2023-07-29T06:13:12;7.15;;;1.30;;
70312;SDS011;57723;51.698;5.344;2023-07-29T06:15:39;3.60;;;1.15;;
70312;SDS011;57723;51.698;5.344;2023-07-29T06:20:55;3.03;;;1.25;;
70312;SDS011;57723;51.698;5.344;2023-07-29T06:25:58;3.47;;;1.27;;
70312;SDS011;57723;51.698;5.344;2023-07-29T06:28:25;4.07;;;1.50;;
70312;SDS011;57723;51.698;5.344;2023-07-29T06:30:50;4.37;;;1.60;;
70312;SDS011;57723;51.698;5.344;2023-07-29T06:33:19;4.77;;;1.80;;
70312;SDS011;57723;51.698;5.344;2023-07-29T06:35:50;4.47;;;1.70;;
70312;SDS011;57723;51.698;5.344;2023-07-29T06:38:15;4.13;;;1.70;;
70312;SDS011;57723;51.698;5.344;2023-07-29T06:40:46;4.30;;;1.93;;
70312;SDS011;57723;51.698;5.344;2023-07-29T06:43:17;8.98;;;1.95;;
70312;SDS011;57723;51.698;5.344;2023-07-29T06:45:47;3.83;;;1.70;;
70312;SDS011;57723;51.698;5.344;2023-07-29T06:48:21;3.20;;;1.80;;
70312;SDS011;57723;51.698;5.344;2023-07-29T06:50:59;4.88;;;1.88;;
70312;SDS011;57723;51.698;5.344;2023-07-29T06:53:28;4.53;;;1.80;;
70312;SDS011;57723;51.698;5.344;2023-07-29T06:55:56;3.47;;;1.55;;
70312;SDS011;57723;51.698;5.344;2023-07-29T06:58:22;5.22;;;1.70;;
70312;SDS011;57723;51.698;5.344;2023-07-29T07:00:51;4.78;;;1.58;;
70312;SDS011;57723;51.698;5.344;2023-07-29T07:03:16;3.50;;;1.40;;
70312;SDS011;57723;51.698;5.344;2023-07-29T07:05:41;5.50;;;1.50;;
70312;SDS011;57723;51.698;5.344;2023-07-29T07:08:07;3.00;;;1.60;;
70312;SDS011;57723;51.698;5.344;2023-07-29T07:10:32;3.97;;;1.50;;
70312;SDS011;57723;51.698;5.344;2023-07-29T07:13:02;3.15;;;1.58;;
70312;SDS011;57723;51.698;5.344;2023-07-29T07:15:27;4.50;;;1.48;;
70312;SDS011;57723;51.698;5.344;2023-07-29T07:17:53;3.10;;;1.40;;
70312;SDS011;57723;51.698;5.344;2023-07-29T07:20:18;3.87;;;1.30;;
70312;SDS011;57723;51.698;5.344;2023-07-29T07:22:47;3.93;;;1.27;;
70312;SDS011;57723;51.698;5.344;2023-07-29T07:25:15;3.37;;;1.40;;
70312;SDS011;57723;51.698;5.344;2023-07-29T07:27:50;2.42;;;1.15;;
70312;SDS011;57723;51.698;5.344;2023-07-29T07:30:15;3.37;;;1.27;;
70312;SDS011;57723;51.698;5.344;2023-07-29T07:32:40;5.13;;;1.50;;
70312;SDS011;57723;51.698;5.344;2023-07-29T07:35:06;4.73;;;1.77;;
70312;SDS011;57723;51.698;5.344;2023-07-29T07:37:45;3.30;;;1.58;;
70312;SDS011;57723;51.698;5.344;2023-07-29T07:40:12;3.08;;;1.30;;
70312;SDS011;57723;51.698;5.344;2023-07-29T07:42:37;2.57;;;1.30;;
70312;SDS011;57723;51.698;5.344;2023-07-29T07:45:05;4.80;;;1.40;;
70312;SDS011;57723;51.698;5.344;2023-07-29T07:47:33;2.93;;;1.30;;
70312;SDS011;57723;51.698;5.344;2023-07-29T07:50:03;2.75;;;1.30;;
70312;SDS011;57723;51.698;5.344;2023-07-29T07:52:29;4.68;;;1.33;;
70312;SDS011;57723;51.698;5.344;2023-07-29T07:55:00;4.82;;;1.50;;
70312;SDS011;57723;51.698;5.344;2023-07-29T07:57:26;4.00;;;1.50;;
70312;SDS011;57723;51.698;5.344;2023-07-29T07:59:59;2.00;;;1.10;;
70312;SDS011;57723;51.698;5.344;2023-07-29T08:02:32;2.17;;;1.23;;
70312;SDS011;57723;51.698;5.344;2023-07-29T08:04:57;5.20;;;1.70;;
70312;SDS011;57723;51.698;5.344;2023-07-29T08:07:26;3.40;;;1.52;;
70312;SDS011;57723;51.698;5.344;2023-07-29T08:09:57;4.97;;;1.80;;
70312;SDS011;57723;51.698;5.344;2023-07-29T08:12:22;4.53;;;1.52;;
70312;SDS011;57723;51.698;5.344;2023-07-29T08:14:56;3.63;;;1.63;;
70312;SDS011;57723;51.698;5.344;2023-07-29T08:17:32;4.77;;;1.80;;
70312;SDS011;57723;51.698;5.344;2023-07-29T08:19:58;6.70;;;1.70;;
70312;SDS011;57723;51.698;5.344;2023-07-29T08:22:24;4.00;;;1.50;;
70312;SDS011;57723;51.698;5.344;2023-07-29T08:24:49;5.33;;;1.30;;
70312;SDS011;57723;51.698;5.344;2023-07-29T08:27:18;4.50;;;1.47;;
70312;SDS011;57723;51.698;5.344;2023-07-29T08:29:55;3.88;;;1.80;;
70312;SDS011;57723;51.698;5.344;2023-07-29T08:32:21;3.15;;;1.27;;
70312;SDS011;57723;51.698;5.344;2023-07-29T08:34:54;4.10;;;1.50;;
70312;SDS011;57723;51.698;5.344;2023-07-29T08:37:20;4.50;;;1.77;;
70312;SDS011;57723;51.698;5.344;2023-07-29T08:40:01;4.33;;;1.60;;
70312;SDS011;57723;51.698;5.344;2023-07-29T08:42:31;4.53;;;1.55;;
70312;SDS011;57723;51.698;5.344;2023-07-29T08:44:58;3.67;;;1.77;;
70312;SDS011;57723;51.698;5.344;2023-07-29T08:47:31;3.17;;;1.80;;
70312;SDS011;57723;51.698;5.344;2023-07-29T08:50:09;4.00;;;2.10;;
70312;SDS011;57723;51.698;5.344;2023-07-29T08:52:38;3.80;;;1.67;;
70312;SDS011;57723;51.698;5.344;2023-07-29T08:57:59;3.83;;;1.55;;
70312;SDS011;57723;51.698;5.344;2023-07-29T09:00:36;4.60;;;1.90;;
70312;SDS011;57723;51.698;5.344;2023-07-29T09:03:07;3.17;;;1.67;;
70312;SDS011;57723;51.698;5.344;2023-07-29T09:05:44;3.83;;;1.93;;
70312;SDS011;57723;51.698;5.344;2023-07-29T09:08:11;2.92;;;1.45;;
70312;SDS011;57723;51.698;5.344;2023-07-29T09:10:55;3.38;;;1.77;;
70312;SDS011;57723;51.698;5.344;2023-07-29T09:13:24;2.40;;;1.40;;
70312;SDS011;57723;51.698;5.344;2023-07-29T09:16:10;2.47;;;1.35;;
70312;SDS011;57723;51.698;5.344;2023-07-29T09:18:35;2.80;;;1.60;;
70312;SDS011;57723;51.698;5.344;2023-07-29T09:21:02;2.70;;;1.45;;
70312;SDS011;57723;51.698;5.344;2023-07-29T09:23:41;3.27;;;1.17;;
70312;SDS011;57723;51.698;5.344;2023-07-29T09:26:13;2.40;;;1.08;;
70312;SDS011;57723;51.698;5.344;2023-07-29T09:28:50;2.55;;;1.35;;
70312;SDS011;57723;51.698;5.344;2023-07-29T09:31:20;2.97;;;1.20;;
70312;SDS011;57723;51.698;5.344;2023-07-29T09:33:48;2.15;;;1.20;;
70312;SDS011;57723;51.698;5.344;2023-07-29T09:36:14;2.43;;;1.10;;
70312;SDS011;57723;51.698;5.344;2023-07-29T09:38:43;3.47;;;1.10;;
70312;SDS011;57723;51.698;5.344;2023-07-29T09:41:17;1.57;;;0.87;;
70312;SDS011;57723;51.698;5.344;2023-07-29T09:43:57;4.18;;;1.20;;
70312;SDS011;57723;51.698;5.344;2023-07-29T09:46:33;1.48;;;1.10;;
70312;SDS011;57723;51.698;5.344;2023-07-29T09:49:05;2.15;;;0.95;;
70312;SDS011;57723;51.698;5.344;2023-07-29T09:51:31;2.08;;;1.10;;
70312;SDS011;57723;51.698;5.344;2023-07-29T09:53:56;4.40;;;1.00;;
70312;SDS011;57723;51.698;5.344;2023-07-29T09:56:24;1.90;;;0.90;;
70312;SDS011;57723;51.698;5.344;2023-07-29T09:58:55;3.97;;;1.15;;
70312;SDS011;57723;51.698;5.344;2023-07-29T10:01:21;2.55;;;1.00;;
70312;SDS011;57723;51.698;5.344;2023-07-29T10:03:47;6.70;;;1.40;;
70312;SDS011;57723;51.698;5.344;2023-07-29T10:06:16;2.65;;;1.20;;
70312;SDS011;57723;51.698;5.344;2023-07-29T10:08:42;1.98;;;1.02;;
70312;SDS011;57723;51.698;5.344;2023-07-29T10:11:14;2.87;;;1.13;;
70312;SDS011;57723;51.698;5.344;2023-07-29T10:13:39;1.90;;;1.10;;
70312;SDS011;57723;51.698;5.344;2023-07-29T10:16:18;1.08;;;0.82;;
70312;SDS011;57723;51.698;5.344;2023-07-29T10:18:43;1.65;;;1.10;;
70312;SDS011;57723;51.698;5.344;2023-07-29T10:21:14;1.77;;;0.90;;
70312;SDS011;57723;51.698;5.344;2023-07-29T10:23:42;2.45;;;1.20;;
70312;SDS011;57723;51.698;5.344;2023-07-29T10:26:10;4.75;;;1.20;;
70312;SDS011;57723;51.698;5.344;2023-07-29T10:28:36;2.43;;;1.10;;
70312;SDS011;57723;51.698;5.344;2023-07-29T10:31:02;1.45;;;0.98;;
70312;SDS011;57723;51.698;5.344;2023-07-29T10:33:28;2.20;;;1.10;;
70312;SDS011;57723;51.698;5.344;2023-07-29T10:35:55;2.28;;;1.20;;
70312;SDS011;57723;51.698;5.344;2023-07-29T10:38:24;2.35;;;1.20;;
70312;SDS011;57723;51.698;5.344;2023-07-29T10:40:51;2.10;;;1.10;;
70312;SDS011;57723;51.698;5.344;2023-07-29T10:43:27;1.52;;;1.00;;
70312;SDS011;57723;51.698;5.344;2023-07-29T10:45:52;2.67;;;1.33;;
70312;SDS011;57723;51.698;5.344;2023-07-29T10:48:39;2.15;;;1.10;;
70312;SDS011;57723;51.698;5.344;2023-07-29T10:53:52;1.65;;;1.00;;
70312;SDS011;57723;51.698;5.344;2023-07-29T10:56:40;2.92;;;1.27;;
70312;SDS011;57723;51.698;5.344;2023-07-29T11:01:57;2.17;;;1.02;;
70312;SDS011;57723;51.698;5.344;2023-07-29T11:15:00;2.63;;;1.20;;
70312;SDS011;57723;51.698;5.344;2023-07-29T11:17:33;2.47;;;1.40;;
70312;SDS011;57723;51.698;5.344;2023-07-29T11:20:01;6.05;;;1.10;;
70312;SDS011;57723;51.698;5.344;2023-07-29T11:22:30;2.22;;;1.30;;
70312;SDS011;57723;51.698;5.344;2023-07-29T11:25:00;4.03;;;1.30;;
70312;SDS011;57723;51.698;5.344;2023-07-29T11:27:26;2.88;;;1.20;;
70312;SDS011;57723;51.698;5.344;2023-07-29T11:30:01;6.75;;;1.40;;
70312;SDS011;57723;51.698;5.344;2023-07-29T11:32:27;1.93;;;1.20;;
70312;SDS011;57723;51.698;5.344;2023-07-29T11:35:03;2.15;;;1.27;;
70312;SDS011;57723;51.698;5.344;2023-07-29T11:37:34;4.60;;;1.40;;
70312;SDS011;57723;51.698;5.344;2023-07-29T11:40:00;2.42;;;1.30;;
70312;SDS011;57723;51.698;5.344;2023-07-29T11:42:26;4.10;;;1.30;;
70312;SDS011;57723;51.698;5.344;2023-07-29T11:45:03;6.15;;;1.70;;
70312;SDS011;57723;51.698;5.344;2023-07-29T11:47:34;7.10;;;1.30;;
70312;SDS011;57723;51.698;5.344;2023-07-29T11:50:02;2.35;;;1.17;;
70312;SDS011;57723;51.698;5.344;2023-07-29T11:52:30;4.35;;;1.27;;
70312;SDS011;57723;51.698;5.344;2023-07-29T11:54:57;4.70;;;1.50;;
70312;SDS011;57723;51.698;5.344;2023-07-29T11:57:24;3.15;;;1.52;;
70312;SDS011;57723;51.698;5.344;2023-07-29T11:59:50;4.40;;;1.40;;
70312;SDS011;57723;51.698;5.344;2023-07-29T12:02:16;3.17;;;1.20;;
70312;SDS011;57723;51.698;5.344;2023-07-29T12:04:42;5.03;;;1.30;;
70312;SDS011;57723;51.698;5.344;2023-07-29T12:07:08;3.60;;;1.33;;
70312;SDS011;57723;51.698;5.344;2023-07-29T12:09:52;3.10;;;1.60;;
70312;SDS011;57723;51.698;5.344;2023-07-29T12:12:21;3.73;;;1.53;;
70312;SDS011;57723;51.698;5.344;2023-07-29T12:14:47;4.53;;;1.67;;
70312;SDS011;57723;51.698;5.344;2023-07-29T12:17:17;4.13;;;1.42;;
70312;SDS011;57723;51.698;5.344;2023-07-29T12:19:44;3.30;;;1.33;;
70312;SDS011;57723;51.698;5.344;2023-07-29T12:22:10;6.50;;;1.55;;
70312;SDS011;57723;51.698;5.344;2023-07-29T12:24:37;5.43;;;2.03;;
70312;SDS011;57723;51.698;5.344;2023-07-29T12:27:10;4.68;;;1.58;;
70312;SDS011;57723;51.698;5.344;2023-07-29T12:29:39;3.88;;;1.50;;
70312;SDS011;57723;51.698;5.344;2023-07-29T12:32:07;6.72;;;1.80;;
70312;SDS011;57723;51.698;5.344;2023-07-29T12:34:37;3.63;;;1.70;;
70312;SDS011;57723;51.698;5.344;2023-07-29T12:37:11;4.53;;;1.63;;
70312;SDS011;57723;51.698;5.344;2023-07-29T12:39:40;4.57;;;1.70;;
70312;SDS011;57723;51.698;5.344;2023-07-29T12:42:09;3.78;;;1.88;;
70312;SDS011;57723;51.698;5.344;2023-07-29T12:44:41;5.32;;;1.90;;
70312;SDS011;57723;51.698;5.344;2023-07-29T12:47:06;5.20;;;1.67;;
70312;SDS011;57723;51.698;5.344;2023-07-29T12:49:34;4.75;;;1.75;;
70312;SDS011;57723;51.698;5.344;2023-07-29T12:52:00;3.40;;;1.50;;
70312;SDS011;57723;51.698;5.344;2023-07-29T12:54:27;3.20;;;1.80;;
70312;SDS011;57723;51.698;5.344;2023-07-29T12:56:54;3.88;;;1.70;;
70312;SDS011;57723;51.698;5.344;2023-07-29T12:59:20;3.60;;;1.47;;
70312;SDS011;57723;51.698;5.344;2023-07-29T13:01:48;3.63;;;1.75;;
70312;SDS011;57723;51.698;5.344;2023-07-29T13:04:20;4.25;;;1.70;;
70312;SDS011;57723;51.698;5.344;2023-07-29T13:06:46;3.15;;;1.55;;
70312;SDS011;57723;51.698;5.344;2023-07-29T13:09:13;3.70;;;1.63;;
70312;SDS011;57723;51.698;5.344;2023-07-29T13:11:38;5.18;;;1.55;;
70312;SDS011;57723;51.698;5.344;2023-07-29T13:14:17;3.00;;;1.52;;
70312;SDS011;57723;51.698;5.344;2023-07-29T13:16:46;3.63;;;1.48;;
70312;SDS011;57723;51.698;5.344;2023-07-29T13:19:11;3.60;;;1.60;;
70312;SDS011;57723;51.698;5.344;2023-07-29T13:21:37;3.90;;;1.70;;
70312;SDS011;57723;51.698;5.344;2023-07-29T13:24:02;2.90;;;1.40;;
70312;SDS011;57723;51.698;5.344;2023-07-29T13:26:28;2.53;;;1.65;;
70312;SDS011;57723;51.698;5.344;2023-07-29T13:28:53;2.63;;;1.30;;
70312;SDS011;57723;51.698;5.344;2023-07-29T13:31:20;5.65;;;1.30;;
70312;SDS011;57723;51.698;5.344;2023-07-29T13:33:45;4.63;;;1.50;;
70312;SDS011;57723;51.698;5.344;2023-07-29T13:36:11;4.40;;;1.40;;
70312;SDS011;57723;51.698;5.344;2023-07-29T13:38:36;4.22;;;1.50;;
70312;SDS011;57723;51.698;5.344;2023-07-29T13:41:02;2.60;;;1.20;;
70312;SDS011;57723;51.698;5.344;2023-07-29T13:43:28;2.53;;;1.38;;
70312;SDS011;57723;51.698;5.344;2023-07-29T13:45:54;3.87;;;1.47;;
70312;SDS011;57723;51.698;5.344;2023-07-29T13:48:19;2.43;;;1.30;;
70312;SDS011;57723;51.698;5.344;2023-07-29T13:50:45;2.15;;;1.30;;
70312;SDS011;57723;51.698;5.344;2023-07-29T13:53:10;2.93;;;1.27;;
70312;SDS011;57723;51.698;5.344;2023-07-29T13:55:35;2.90;;;1.60;;
70312;SDS011;57723;51.698;5.344;2023-07-29T13:58:01;2.50;;;1.40;;
70312;SDS011;57723;51.698;5.344;2023-07-29T14:00:29;3.25;;;1.33;;
70312;SDS011;57723;51.698;5.344;2023-07-29T14:02:58;3.03;;;1.40;;
70312;SDS011;57723;51.698;5.344;2023-07-29T14:05:23;3.03;;;1.40;;
70312;SDS011;57723;51.698;5.344;2023-07-29T14:07:48;2.83;;;1.40;;
70312;SDS011;57723;51.698;5.344;2023-07-29T14:10:14;2.30;;;1.50;;
70312;SDS011;57723;51.698;5.344;2023-07-29T14:12:40;4.30;;;1.47;;
70312;SDS011;57723;51.698;5.344;2023-07-29T14:15:05;3.40;;;1.50;;
70312;SDS011;57723;51.698;5.344;2023-07-29T14:17:31;2.75;;;1.40;;
70312;SDS011;57723;51.698;5.344;2023-07-29T14:19:59;4.80;;;1.50;;
70312;SDS011;57723;51.698;5.344;2023-07-29T14:22:25;2.33;;;1.30;;
70312;SDS011;57723;51.698;5.344;2023-07-29T14:24:51;2.63;;;1.40;;
70312;SDS011;57723;51.698;5.344;2023-07-29T14:27:16;2.70;;;1.37;;
70312;SDS011;57723;51.698;5.344;2023-07-29T14:29:42;2.37;;;1.40;;
70312;SDS011;57723;51.698;5.344;2023-07-29T14:32:08;2.97;;;1.40;;
70312;SDS011;57723;51.698;5.344;2023-07-29T14:34:39;2.22;;;1.50;;
70312;SDS011;57723;51.698;5.344;2023-07-29T14:37:05;1.80;;;1.30;;
70312;SDS011;57723;51.698;5.344;2023-07-29T14:39:34;3.40;;;1.50;;
70312;SDS011;57723;51.698;5.344;2023-07-29T14:42:00;3.00;;;1.33;;
70312;SDS011;57723;51.698;5.344;2023-07-29T14:44:25;3.30;;;1.33;;
70312;SDS011;57723;51.698;5.344;2023-07-29T14:46:50;2.47;;;1.17;;
70312;SDS011;57723;51.698;5.344;2023-07-29T14:49:16;2.37;;;1.33;;
70312;SDS011;57723;51.698;5.344;2023-07-29T14:51:44;2.83;;;1.40;;
70312;SDS011;57723;51.698;5.344;2023-07-29T14:54:09;2.37;;;1.30;;
70312;SDS011;57723;51.698;5.344;2023-07-29T14:56:35;3.15;;;1.35;;
70312;SDS011;57723;51.698;5.344;2023-07-29T14:59:01;1.77;;;1.20;;
70312;SDS011;57723;51.698;5.344;2023-07-29T15:01:27;3.58;;;1.67;;
70312;SDS011;57723;51.698;5.344;2023-07-29T15:03:53;2.65;;;1.50;;
70312;SDS011;57723;51.698;5.344;2023-07-29T15:06:20;2.33;;;1.40;;
70312;SDS011;57723;51.698;5.344;2023-07-29T15:08:46;2.08;;;1.42;;
70312;SDS011;57723;51.698;5.344;2023-07-29T15:11:11;2.17;;;1.47;;
70312;SDS011;57723;51.698;5.344;2023-07-29T15:13:36;2.42;;;1.50;;
70312;SDS011;57723;51.698;5.344;2023-07-29T15:16:04;2.70;;;1.23;;
70312;SDS011;57723;51.698;5.344;2023-07-29T15:18:30;2.55;;;1.50;;
70312;SDS011;57723;51.698;5.344;2023-07-29T15:20:58;2.45;;;1.40;;
70312;SDS011;57723;51.698;5.344;2023-07-29T15:23:25;2.30;;;1.50;;